Seat Pleasant, Maryland
Current Conditions -  °F | °C
As of 2:22 AM on Wednesday 26 Nov 2014 (Local Time) from KADW Reporting Station
Drizzle Drizzle  
Wind Chill: 48°   Ceiling: Unl
Heat Index: 48°   Visibility: 10mi
Dew Point: 36°   Wind: 0mph
Humidity: 62%   Direction: NA
Pressure: 30.11"   Gusts: NA
Location:  38.8854°N, 76.8965°W
Report Text: KADW 260722Z AUTO 00000KT 10SM -DZ FEW038 09/02 A3011 RMK AO2 PRESFR
Loading
Personal Weather Stations






























Interactive Weather Map New forecast layout! Learn more

10-Day Weather Forecast

Advertisements
Track Severe Weather on mobile